»·PEaware :: N292MC KHQM-S23

N292MC :: KHQM-S23

FLIGHT INFORMATION

Flight Status: Arrived
Operator: Privately registered:
United States
More flights under this callsign
Pilot: Maurice C. (12314)
Aircraft: Unknown
(KODI)
More flights by this aircraft type
Origin: KHQM Bowerman
United States
Destination: S23 Ione Mun
United States
More flights between these airports :: More routes between these airports
Route: PAE
File this flight plan on PilotEdge
Remarks: ALPHABET CHALLENGE
Altitude:
(Current/Filed)
9,500ft
Speed:
(Current/Filed)
180kts
Departed: 02-May-20 12:15 PM
Arrived: 02-May-20 02:14 PM
Distance/Time
Traveled:
283nm/1:59
Distance/Time
To Go:
Arrived

Flight Plot

Page will automatically refresh every two minutes.

Flight plan parsing failed; only flown route is shown


Map Options




Map Legend


Flown Route
Filed Route
Departure Airport
Arrival Airport
Navaid (VOR, NDB)
Fix

Horizontal Profiles

Position Reports

Time Latitude Longitude Heading Altitude Ground
Speed
02-May-20 12:03 46.973332 -123.930863 170 18ft 0kts
02-May-20 12:04 46.973332 -123.930863 170 18ft 0kts
02-May-20 12:05 46.973332 -123.930863 170 18ft 0kts
02-May-20 12:06 46.973332 -123.930863 170 18ft 0kts
02-May-20 12:07 46.973332 -123.930863 170 18ft 0kts
02-May-20 12:08 46.973332 -123.930863 170 18ft 0kts
02-May-20 12:09 46.973332 -123.930863 170 18ft 0kts
02-May-20 12:10 46.973329 -123.930862 170 18ft 0kts
02-May-20 12:11 46.973329 -123.930862 170 18ft 0kts
02-May-20 12:12 46.973353 -123.927500 114 18ft 3kts
02-May-20 12:13 46.973122 -123.927244 151 18ft 6kts
02-May-20 12:14 46.970944 -123.938850 257 174ft 84kts
02-May-20 12:15 46.953713 -123.964136 175 1121ft 130kts
02-May-20 12:16 46.934182 -123.921747 87 2062ft 165kts
02-May-20 12:17 46.949053 -123.857476 82 2806ft 166kts
02-May-20 12:18 46.965536 -123.791648 49 2839ft 193kts
02-May-20 12:19 47.013589 -123.757922 20 2832ft 195kts
02-May-20 12:20 47.064896 -123.733695 18 2834ft 191kts
02-May-20 12:21 47.109847 -123.703256 48 2379ft 189kts
02-May-20 12:22 47.135600 -123.655685 53 2367ft 159kts
02-May-20 12:23 47.163774 -123.607881 52 2431ft 151kts
02-May-20 12:24 47.193258 -123.557101 52 2181ft 164kts
02-May-20 12:25 47.222593 -123.506599 49 1857ft 159kts
02-May-20 12:26 47.248253 -123.459245 67 1990ft 143kts
02-May-20 12:27 47.261369 -123.403704 68 1968ft 147kts
02-May-20 12:28 47.276414 -123.349244 68 1967ft 145kts
02-May-20 12:29 47.290547 -123.297261 64 2126ft 138kts
02-May-20 12:30 47.316793 -123.268206 32 2826ft 117kts
02-May-20 12:31 47.345010 -123.246299 31 3442ft 123kts
02-May-20 12:32 47.376783 -123.221125 32 3546ft 151kts
02-May-20 12:33 47.411103 -123.178717 54 3254ft 163kts
02-May-20 12:34 47.440207 -123.127656 53 2995ft 155kts
02-May-20 12:35 47.467188 -123.080446 53 3030ft 149kts
02-May-20 12:36 47.494389 -123.033184 52 3017ft 165kts
02-May-20 12:37 47.525005 -122.979053 51 3017ft 185kts
02-May-20 12:38 47.555677 -122.925177 53 3013ft 184kts
02-May-20 12:39 47.586105 -122.871434 52 3006ft 184kts
02-May-20 12:40 47.617422 -122.816502 53 3003ft 185kts
02-May-20 12:41 47.648085 -122.761647 51 2981ft 186kts
02-May-20 12:42 47.679360 -122.706406 52 2984ft 183kts
02-May-20 12:44 47.710019 -122.652258 52 3204ft 179kts
02-May-20 12:45 47.740689 -122.597684 51 3426ft 177kts
02-May-20 12:46 47.771466 -122.542929 52 3476ft 184kts
02-May-20 12:47 47.802099 -122.488147 51 3459ft 183kts
02-May-20 12:48 47.831231 -122.436385 52 3475ft 182kts
02-May-20 12:49 47.859858 -122.384826 52 3127ft 193kts
02-May-20 12:50 47.887842 -122.334777 51 2984ft 174kts
02-May-20 12:51 47.914169 -122.287568 53 3002ft 166kts
02-May-20 12:52 47.928341 -122.232251 78 3222ft 156kts
02-May-20 12:53 47.939115 -122.173523 75 3203ft 165kts
02-May-20 12:54 47.950064 -122.113567 77 3661ft 163kts
02-May-20 12:55 47.961615 -122.051328 78 4507ft 157kts
02-May-20 12:56 47.972504 -121.991528 78 5178ft 160kts
02-May-20 12:57 47.984163 -121.929947 81 5919ft 156kts
02-May-20 12:58 47.995304 -121.868957 82 6717ft 155kts
02-May-20 12:58 48.005279 -121.813818 82 7365ft 157kts
02-May-20 13:00 48.018831 -121.739316 81 8135ft 160kts
02-May-20 13:01 48.029615 -121.679613 82 8758ft 161kts
02-May-20 13:01 48.038560 -121.629912 83 9276ft 161kts
02-May-20 13:02 48.040436 -121.569755 87 9485ft 175kts
02-May-20 13:04 48.061275 -121.503898 82 10024ft 166kts
02-May-20 13:04 48.069364 -121.457769 84 10526ft 162kts
02-May-20 13:05 48.079084 -121.403009 84 11123ft 162kts
02-May-20 13:07 48.090023 -121.340718 85 11508ft 175kts
02-May-20 13:07 48.098870 -121.290481 84 11534ft 183kts
02-May-20 13:08 48.106944 -121.244678 84 11536ft 184kts
02-May-20 13:09 48.116094 -121.192493 84 11533ft 185kts
02-May-20 13:10 48.125132 -121.140780 84 11537ft 185kts
02-May-20 13:11 48.134417 -121.087642 84 11544ft 185kts
02-May-20 13:12 48.144879 -121.027433 83 11548ft 185kts
02-May-20 13:13 48.155449 -120.966046 84 11574ft 184kts
02-May-20 13:14 48.166169 -120.903235 83 11519ft 190kts
02-May-20 13:15 48.177243 -120.840184 83 11550ft 188kts
02-May-20 13:16 48.187795 -120.778756 83 11508ft 190kts
02-May-20 13:17 48.198484 -120.714783 82 11120ft 195kts
02-May-20 13:18 48.208680 -120.652085 81 10701ft 195kts
02-May-20 13:19 48.219397 -120.588770 81 10278ft 194kts
02-May-20 13:20 48.230003 -120.525494 80 9853ft 194kts
02-May-20 13:21 48.240424 -120.464108 79 9524ft 187kts
02-May-20 13:22 48.250658 -120.403356 80 9527ft 182kts
02-May-20 13:23 48.259772 -120.348816 80 9536ft 180kts
02-May-20 13:24 48.269054 -120.293193 81 9585ft 180kts
02-May-20 13:25 48.278412 -120.236792 81 9583ft 181kts
02-May-20 13:26 48.287446 -120.182261 81 9588ft 181kts
02-May-20 13:27 48.296360 -120.128176 81 9586ft 181kts
02-May-20 13:28 48.305098 -120.075129 80 9581ft 182kts
02-May-20 13:29 48.314208 -120.019765 80 9543ft 182kts
02-May-20 13:30 48.323086 -119.964398 81 9548ft 180kts
02-May-20 13:31 48.332270 -119.907815 81 9524ft 181kts
02-May-20 13:32 48.341589 -119.851173 80 9530ft 181kts
02-May-20 13:33 48.350468 -119.797163 80 9587ft 179kts
02-May-20 13:34 48.359635 -119.743698 80 9570ft 182kts
02-May-20 13:35 48.368241 -119.689582 82 9559ft 181kts
02-May-20 13:36 48.376915 -119.636245 79 9564ft 180kts
02-May-20 13:37 48.385458 -119.583691 80 9557ft 180kts
02-May-20 13:38 48.393670 -119.530719 81 9549ft 179kts
02-May-20 13:39 48.402303 -119.476150 81 9532ft 181kts
02-May-20 13:40 48.410900 -119.422425 81 9546ft 179kts
02-May-20 13:41 48.419191 -119.368613 80 9520ft 181kts
02-May-20 13:42 48.426294 -119.326055 80 9588ft 178kts
02-May-20 13:43 48.434953 -119.269996 82 9576ft 180kts
02-May-20 13:44 48.444611 -119.208144 81 9471ft 184kts
02-May-20 13:45 48.454678 -119.144068 81 9016ft 190kts
02-May-20 13:46 48.464570 -119.079592 80 8585ft 190kts
02-May-20 13:47 48.474410 -119.017568 79 8144ft 190kts
02-May-20 13:48 48.483083 -118.959632 79 7687ft 190kts
02-May-20 13:49 48.491344 -118.903985 78 7573ft 180kts
02-May-20 13:50 48.499916 -118.849276 79 7559ft 179kts
02-May-20 13:51 48.507704 -118.797258 79 7874ft 168kts
02-May-20 13:52 48.515288 -118.746647 79 8055ft 174kts
02-May-20 13:53 48.523543 -118.692231 80 8056ft 176kts
02-May-20 13:54 48.538350 -118.589583 79 8059ft 178kts
02-May-20 13:55 48.554184 -118.483584 79 8077ft 177kts
02-May-20 13:56 48.569791 -118.378084 79 7567ft 182kts
02-May-20 13:57 48.582150 -118.294048 81 7667ft 176kts
02-May-20 13:58 48.587416 -118.192929 67 7574ft 181kts
02-May-20 13:59 48.627039 -118.105954 56 6492ft 193kts
02-May-20 14:00 48.652165 -118.044273 61 6508ft 182kts
02-May-20 14:01 48.684692 -117.963305 59 6487ft 178kts
02-May-20 14:02 48.718418 -117.861802 66 6495ft 177kts
02-May-20 14:03 48.743395 -117.760999 73 6484ft 176kts
02-May-20 14:04 48.762097 -117.662869 79 6468ft 162kts
02-May-20 14:05 48.768255 -117.621639 79 6143ft 124kts
02-May-20 14:06 48.773050 -117.579176 80 5704ft 145kts
02-May-20 14:07 48.774846 -117.534921 92 5458ft 115kts
02-May-20 14:08 48.772119 -117.499091 100 5149ft 111kts
02-May-20 14:09 48.767896 -117.463395 101 4771ft 118kts
02-May-20 14:10 48.758701 -117.427541 158 3844ft 125kts
02-May-20 14:11 48.733304 -117.421188 168 2793ft 111kts
02-May-20 14:12 48.712737 -117.414563 166 2118ft 70kts
02-May-20 14:13 48.708482 -117.413110 337 2119ft 20kts
02-May-20 14:14 48.713907 -117.414290 80 2115ft 10kts
02-May-20 14:15 48.713916 -117.414190 82 2115ft 0kts
02-May-20 14:16 48.713916 -117.414190 82 2115ft 0kts

Navigation Log

Ident Type
Flight plan parsing failed, navigation log unavailable